Terminal Aerodrome Forecast
Issued by NWS Hastings, NE

Home | Current Version | Previous Version | Text Only | Print | Product List | Glossary On
Versions: 1 2 3 4 5 6 7 8 9 10 11 12 13 14 15 16
678
FTUS45 KGID 230524
TAFEAR
TAF
KEAR 230524Z 2306/2406 16013G19KT P6SM OVC030
     FM230900 16013KT P6SM -DZ OVC010
     FM231200 16015G23KT P6SM -DZ VCSH OVC003
     FM231600 17017G24KT P6SM OVC010
     FM231900 17018G25KT P6SM BKN035
     FM232300 18018G25KT P6SM VCTS BKN060CB
      AMD LTD TO CLD VIS AND WIND=

USA.gov is the U.S. government's official web portal to all federal, state and local government web resources and services.